Temperatura máxima Desde: 18-08-2017 10:00 Hasta: 18:59 Aviso por: Temperatura máxima Nivel: Amarillo info button
 

Informes METAR

 

LEZL - Sevilla, Spain
Distancia de la estación: ENE 8km
Actualización: 18/08/2017 16:00
Despejado
Despejado
 Viento de O
Viento: O 7 km/h
Temperatura: 37°C
Rocío: 15°C
Humedad: 27%
Barómetro: 1014 hPa
Resumen: Despejado
Visibilidad: mayor de 10 km
2017/08/18 14:00 LEZL 181400Z 28004KT 190V340 CAVOK 37/15 Q1014 NOSIG
LEMO - Morón, Spain
Distancia de la estación: SE 43km
Actualización: 18/08/2017 16:00
Despejado
Despejado
 Viento de variable
Viento: variable 11 km/h
Temperatura: 37°C
Rocío: 17°C
Humedad: 31%
Barómetro: 1014 hPa
Resumen: Despejado
Visibilidad: mayor de 10 km
2017/08/18 14:00 LEMO 181400Z VRB06KT CAVOK 37/17 Q1014 NOSIG
LEJR - Jeréz, Spain
Distancia de la estación: S 71km
Actualización: 18/08/2017 16:00
Despejado
Despejado
 Viento de O
Viento: O 9 km/h
Temperatura: 38°C
Rocío: 16°C
Humedad: 27%
Barómetro: 1014 hPa
Resumen: Despejado
Visibilidad: mayor de 10 km
2017/08/18 14:00 LEJR 181400Z 26005KT 200V330 CAVOK 38/16 Q1014
 
LERT - Rota, Spain
Distancia de la estación: SSO 89km
Actualización: 18/08/2017 16:00
Despejado
Despejado
 Viento de O
Viento: O 20 km/h
Temperatura: 29°C
Índice de calor: 31°C
Rocío: 21°C
Humedad: 62%
Barómetro: 1015 hPa
Resumen: Despejado
Visibilidad: mayor de 10 km
2017/08/18 14:00 LERT 181400Z 26011KT CAVOK 29/21 Q1015 NOSIG
LEMG - Málaga, Spain
Distancia de la estación: ESE 157km
Actualización: 18/08/2017 16:00
Despejado
Despejado
 Viento de SE
Viento: SE 24 km/h
Temperatura: 28°C
Índice de calor: 30°C
Rocío: 21°C
Humedad: 66%
Barómetro: 1016 hPa
Resumen: Despejado
Visibilidad: mayor de 10 km
2017/08/18 14:00 LEMG 181400Z 14013KT 110V170 CAVOK 28/21 Q1016 NOSIG
LEBA - Córdoba, Spain
Distancia de la estación: ENE 115km
Actualización: 18/08/2017 16:00
Despejado
Despejado
 Viento de O
Viento: O 13 km/h
Temperatura: 39°C
Rocío: 13°C
Humedad: 21%
Barómetro: 1013 hPa
Resumen: Despejado
Visibilidad: mayor de 10 km
2017/08/18 14:00 LEBA 181400Z 28007KT 240V350 CAVOK 39/13 Q1013
 
LEGR - Granada, Spain
Distancia de la estación: E 198km
Actualización: 18/08/2017 16:00
Poco nuboso
Poco nuboso
 Viento de N
Viento: N 7 km/h
Temperatura: 39°C
Rocío: 7°C
Humedad: 14%
Barómetro: 1017 hPa
Nubes: Poco nuboso
Visibilidad: 10 km
Detalles de las nubes: Poco nuboso 2134 m
2017/08/18 14:00 LEGR 181400Z 35004KT 270V070 9999 FEW070 39/07 Q1017
LEAM - Almería, Spain
Distancia de la estación: E 326km
Actualización: 18/08/2017 16:00
Despejado
Despejado
 Viento de SSO
Viento: SSO 19 km/h
Temperatura: 28°C
Índice de calor: 32°C
Rocío: 24°C
Humedad: 79%
Barómetro: 1015 hPa
Resumen: Despejado
Visibilidad: mayor de 10 km
2017/08/18 14:00 LEAM 181400Z 20010KT CAVOK 28/24 Q1015
LEMD - Madrid/Barajas, Spain
Distancia de la estación: NNE 402km
Actualización: 18/08/2017 16:00
Despejado
Despejado
 Viento de O
Viento: O 13 km/h
Temperatura: 37°C
Rocío: 11°C
Humedad: 21%
Barómetro: 1016 hPa
Resumen: Despejado
Visibilidad: mayor de 10 km
2017/08/18 14:00 LEMD 181400Z 27007KT 200V320 CAVOK 37/11 Q1016 NOSIG
 
LEVD - Valladolid, Spain
Distancia de la estación: N 492km
Actualización: 18/08/2017 16:00
Despejado
Despejado
 Viento de NNO
Viento: NNO 9 km/h
Temperatura: 29°C
Rocío: 8°C
Humedad: 27%
Barómetro: 1020 hPa
Resumen: Despejado
Visibilidad: mayor de 10 km
2017/08/18 14:00 LEVD 181400Z 34005KT CAVOK 29/08 Q1020
LEBL - Barcelona, Spain
Distancia de la estación: NE 816km
Actualización: 18/08/2017 16:00
Despejado
Despejado
 Viento de SO
Viento: SO 24 km/h
Temperatura: 29°C
Índice de calor: 32°C
Rocío: 22°C
Humedad: 66%
Barómetro: 1015 hPa
Resumen: Despejado
Visibilidad: mayor de 10 km
2017/08/18 14:00 LEBL 181400Z 22013KT 190V250 CAVOK 29/22 Q1015 NOSIG
LEVC - Valencia, Spain
Distancia de la estación: ENE 535km
Actualización: 18/08/2017 16:00
Despejado
Despejado
 Viento de SE
Viento: SE 17 km/h
Temperatura: 30°C
Índice de calor: 34°C
Rocío: 23°C
Humedad: 66%
Barómetro: 1014 hPa
Resumen: Despejado
Visibilidad: mayor de 10 km
2017/08/18 14:00 LEVC 181400Z 13009KT 090V170 CAVOK 30/23 Q1014 NOSIG